createdAt,value
2024-03-07T00:00:23.209Z,49.83
2024-03-07T00:05:26.166Z,43.33
2024-03-07T00:10:28.447Z,52.15
2024-03-07T00:15:31.265Z,42.47
2024-03-07T00:20:32.957Z,39.95
2024-03-07T00:25:34.705Z,48.00
2024-03-07T00:30:36.501Z,43.55
2024-03-07T00:35:38.267Z,46.40
2024-03-07T00:40:39.969Z,49.35
2024-03-07T00:45:41.945Z,42.58
2024-03-07T00:50:43.857Z,46.72
2024-03-07T00:55:46.021Z,46.13
2024-03-07T01:00:47.689Z,45.60
2024-03-07T01:05:49.475Z,48.83
2024-03-07T01:10:51.342Z,45.25
2024-03-07T01:15:53.071Z,41.97
2024-03-07T01:20:55.978Z,47.10
2024-03-07T01:26:00.806Z,43.03
2024-03-07T01:31:02.468Z,46.30
2024-03-07T01:36:06.252Z,47.75
2024-03-07T01:41:07.905Z,50.15
2024-03-07T01:46:11.237Z,47.88
2024-03-07T01:51:12.922Z,52.33
2024-03-07T01:56:14.680Z,41.05
2024-03-07T02:01:16.866Z,51.70
2024-03-07T02:06:18.772Z,53.20
2024-03-07T02:11:20.746Z,50.13
2024-03-07T02:16:22.736Z,55.08
2024-03-07T02:21:24.385Z,42.83
2024-03-07T02:26:26.183Z,52.90
2024-03-07T02:31:36.200Z,50.00
2024-03-07T02:36:38.054Z,46.92
2024-03-07T02:41:39.875Z,47.88
2024-03-07T02:46:42.190Z,46.25
2024-03-07T02:51:43.891Z,40.25
2024-03-07T02:56:46.563Z,47.28
2024-03-07T03:01:48.384Z,50.00
2024-03-07T03:06:50.084Z,51.30
2024-03-07T03:11:52.893Z,53.88
2024-03-07T03:16:54.624Z,48.90
2024-03-07T03:21:56.905Z,48.53
2024-03-07T03:26:58.758Z,54.28
2024-03-07T03:32:00.547Z,50.38
2024-03-07T03:37:02.187Z,45.50
2024-03-07T03:42:03.977Z,47.35
2024-03-07T03:47:05.698Z,48.42
2024-03-07T03:52:07.741Z,46.53
2024-03-07T03:57:09.454Z,46.40
2024-03-07T04:02:12.082Z,44.17
2024-03-07T04:07:13.931Z,45.40
2024-03-07T04:12:16.500Z,41.78
2024-03-07T04:17:18.296Z,45.72
2024-03-07T04:22:22.865Z,41.30
2024-03-07T04:27:24.713Z,48.20
2024-03-07T04:32:26.442Z,45.10
2024-03-07T04:37:28.528Z,41.17
2024-03-07T04:42:30.305Z,43.28
2024-03-07T04:47:31.998Z,49.53
2024-03-07T04:52:34.480Z,43.30
2024-03-07T04:57:41.115Z,48.67
2024-03-07T05:07:44.933Z,44.65
2024-03-07T05:12:46.611Z,46.83
2024-03-07T05:17:48.419Z,40.70
2024-03-07T05:22:53.068Z,41.13
2024-03-07T05:27:55.319Z,42.20
2024-03-07T05:32:57.101Z,45.97
2024-03-07T05:37:59.199Z,41.78
2024-03-07T05:43:00.849Z,38.72
2024-03-07T05:48:15.809Z,45.38
2024-03-07T05:53:19.191Z,43.65
2024-03-07T05:58:21.118Z,42.90
2024-03-07T06:03:22.787Z,49.17
2024-03-07T06:08:24.520Z,43.40
2024-03-07T06:13:26.247Z,43.22
2024-03-07T06:18:31.391Z,42.38
2024-03-07T06:23:33.626Z,42.65
2024-03-07T06:28:35.269Z,41.15
2024-03-07T06:33:38.326Z,48.00
2024-03-07T06:38:40.365Z,42.35
2024-03-07T06:43:44.223Z,40.40
2024-03-07T06:48:45.977Z,42.15
2024-03-07T06:53:51.464Z,40.65
2024-03-07T06:58:53.337Z,37.63
2024-03-07T07:03:55.909Z,43.75
2024-03-07T07:08:57.591Z,41.92
2024-03-07T07:13:59.269Z,39.53
2024-03-07T07:19:00.899Z,34.05
2024-03-07T07:24:03.175Z,32.38
2024-03-07T07:29:05.867Z,33.63
2024-03-07T07:34:07.619Z,28.40
2024-03-07T07:39:18.074Z,27.48
2024-03-07T07:44:20.548Z,26.45
2024-03-07T07:49:22.190Z,23.08
2024-03-07T07:54:25.766Z,22.83
2024-03-07T07:59:27.454Z,21.85
2024-03-07T08:04:29.133Z,24.95
2024-03-07T08:09:30.801Z,23.45
2024-03-07T08:14:32.467Z,22.30
2024-03-07T08:19:34.144Z,23.48
2024-03-07T08:24:35.746Z,19.63
2024-03-07T08:29:37.408Z,22.55
2024-03-07T08:34:39.039Z,19.42
2024-03-07T08:39:42.022Z,19.27
2024-03-07T08:44:44.056Z,21.00
2024-03-07T08:49:45.712Z,15.45
2024-03-07T08:54:47.989Z,18.40
2024-03-07T08:59:50.059Z,17.40
2024-03-07T09:04:51.873Z,18.35
2024-03-07T09:09:53.725Z,18.73
2024-03-07T09:14:57.279Z,16.60
2024-03-07T09:19:59.215Z,18.23
2024-03-07T09:25:00.887Z,13.05
2024-03-07T09:30:02.580Z,13.20
2024-03-07T09:35:04.768Z,16.70
2024-03-07T09:40:07.667Z,16.08
2024-03-07T09:45:09.806Z,14.98
2024-03-07T09:50:11.475Z,15.07
2024-03-07T09:55:14.607Z,15.52
2024-03-07T10:00:28.045Z,20.60
2024-03-07T10:05:32.437Z,18.13
2024-03-07T10:10:34.366Z,14.63
2024-03-07T10:15:36.394Z,20.13
2024-03-07T10:20:38.494Z,17.85
2024-03-07T10:25:41.417Z,18.00
2024-03-07T10:30:45.680Z,17.95
2024-03-07T10:35:50.361Z,18.33
2024-03-07T10:40:56.254Z,19.17
2024-03-07T10:45:58.242Z,21.23
2024-03-07T10:50:59.893Z,20.17
2024-03-07T10:56:28.378Z,21.27
2024-03-07T11:01:35.673Z,19.85
2024-03-07T11:06:38.460Z,22.65
2024-03-07T11:11:45.115Z,23.10
2024-03-07T11:16:47.098Z,22.05
2024-03-07T11:21:49.441Z,21.67
2024-03-07T11:26:57.461Z,25.60
2024-03-07T11:31:59.091Z,18.98
2024-03-07T11:37:01.198Z,19.92
2024-03-07T11:42:07.740Z,21.17
2024-03-07T11:47:12.474Z,19.20
2024-03-07T11:52:14.380Z,17.25
2024-03-07T11:57:17.001Z,21.42
2024-03-07T12:02:22.620Z,18.92
2024-03-07T12:07:24.436Z,23.33
2024-03-07T12:12:26.301Z,23.73
2024-03-07T12:17:31.268Z,19.73
2024-03-07T12:22:34.112Z,19.77
2024-03-07T12:27:35.685Z,20.77
2024-03-07T12:32:37.415Z,21.73
2024-03-07T12:37:39.125Z,21.08
2024-03-07T12:42:40.724Z,18.60
2024-03-07T12:47:42.365Z,17.67
2024-03-07T12:52:46.882Z,18.55
2024-03-07T12:57:50.986Z,18.23
2024-03-07T13:02:52.649Z,21.58
2024-03-07T13:07:54.492Z,16.70
2024-03-07T13:12:56.132Z,17.58
2024-03-07T13:17:57.805Z,16.60
2024-03-07T13:23:01.930Z,16.10
2024-03-07T13:28:17.571Z,17.10
2024-03-07T13:33:19.589Z,18.15
2024-03-07T13:38:21.610Z,17.17
2024-03-07T13:43:23.306Z,18.05
2024-03-07T13:48:25.331Z,15.05
2024-03-07T13:53:29.178Z,16.65
2024-03-07T13:58:34.051Z,15.00
2024-03-07T14:03:50.470Z,17.42
2024-03-07T14:09:00.615Z,17.08
2024-03-07T14:14:08.248Z,15.05
2024-03-07T14:19:47.366Z,17.33
2024-03-07T14:25:27.199Z,14.52
2024-03-07T14:30:45.076Z,17.30
2024-03-07T14:36:08.767Z,16.58
2024-03-07T14:41:13.415Z,17.73
2024-03-07T14:46:16.808Z,16.58
2024-03-07T14:51:18.896Z,14.77
2024-03-07T14:56:21.134Z,15.50
2024-03-07T15:01:22.790Z,21.05
2024-03-07T15:06:24.385Z,15.77
2024-03-07T15:11:37.244Z,18.73
2024-03-07T15:16:40.249Z,20.58
2024-03-07T15:21:41.932Z,18.42
2024-03-07T15:26:46.993Z,18.83
2024-03-07T15:31:50.726Z,15.23
2024-03-07T15:37:01.146Z,18.30
2024-03-07T15:42:02.817Z,20.08
2024-03-07T15:47:07.873Z,18.90
2024-03-07T15:52:10.592Z,19.17
2024-03-07T15:57:12.315Z,17.00
2024-03-07T16:02:15.725Z,18.15
2024-03-07T16:07:17.719Z,18.45
2024-03-07T16:12:19.893Z,22.27
2024-03-07T16:17:21.598Z,19.35
2024-03-07T16:22:23.846Z,19.52
2024-03-07T16:27:25.506Z,20.83
2024-03-07T16:32:28.282Z,24.85
2024-03-07T16:37:29.975Z,17.23
2024-03-07T16:42:31.556Z,17.95
2024-03-07T16:47:33.197Z,20.02
2024-03-07T16:52:34.895Z,20.80
2024-03-07T16:57:43.216Z,20.67
2024-03-07T17:02:48.113Z,21.52
2024-03-07T17:07:50.612Z,23.67
2024-03-07T17:12:52.434Z,21.42
2024-03-07T17:17:54.903Z,22.27
2024-03-07T17:22:57.266Z,20.58
2024-03-07T17:28:00.595Z,20.75
2024-03-07T17:33:02.458Z,22.10
2024-03-07T17:38:04.391Z,23.63
2024-03-07T17:43:06.030Z,21.33
2024-03-07T17:48:09.047Z,22.58
2024-03-07T17:53:14.864Z,25.33
2024-03-07T17:58:20.876Z,24.58
2024-03-07T18:03:22.872Z,22.17
2024-03-07T18:08:35.610Z,23.55
2024-03-07T18:13:44.558Z,24.70
2024-03-07T18:18:47.495Z,28.20
2024-03-07T18:23:50.094Z,25.55
2024-03-07T18:28:53.359Z,26.20
2024-03-07T18:33:55.080Z,27.63
2024-03-07T18:38:56.927Z,22.52
2024-03-07T18:43:58.633Z,29.05
2024-03-07T18:49:00.944Z,26.13
2024-03-07T18:54:02.779Z,25.33
2024-03-07T18:59:11.165Z,22.60
2024-03-07T19:04:12.796Z,26.02
2024-03-07T19:09:14.655Z,24.90
2024-03-07T19:14:16.290Z,29.83
2024-03-07T19:19:18.187Z,28.05
2024-03-07T19:24:20.426Z,24.10
2024-03-07T19:29:22.229Z,24.52
2024-03-07T19:34:23.898Z,26.33
2024-03-07T19:39:27.928Z,26.15
2024-03-07T19:44:31.978Z,28.80
2024-03-07T19:49:36.756Z,26.45
2024-03-07T19:54:39.480Z,26.60
2024-03-07T19:59:41.256Z,29.02
2024-03-07T20:04:44.515Z,25.38
2024-03-07T20:09:48.351Z,27.95
2024-03-07T20:14:50.114Z,25.48
2024-03-07T20:19:51.724Z,27.40
2024-03-07T20:24:53.349Z,30.20
2024-03-07T20:29:54.972Z,32.88
2024-03-07T20:34:57.129Z,28.52
2024-03-07T20:40:05.216Z,28.42
2024-03-07T20:45:12.314Z,30.60
2024-03-07T20:50:16.929Z,28.00
2024-03-07T20:55:23.947Z,32.03
2024-03-07T21:00:26.398Z,29.13
2024-03-07T21:05:28.455Z,28.73
2024-03-07T21:10:30.814Z,28.48
2024-03-07T21:15:32.402Z,26.17
2024-03-07T21:20:34.660Z,25.15
2024-03-07T21:25:36.996Z,26.70
2024-03-07T21:30:39.030Z,27.08
2024-03-07T21:35:42.679Z,27.58
2024-03-07T21:40:48.749Z,25.13
2024-03-07T21:45:50.338Z,26.17
2024-03-07T21:50:52.051Z,27.85
2024-03-07T21:55:57.015Z,26.25
2024-03-07T22:00:58.640Z,27.02
2024-03-07T22:06:00.335Z,27.80
2024-03-07T22:11:02.043Z,27.80
2024-03-07T22:16:03.909Z,27.25
2024-03-07T22:21:07.900Z,28.95
2024-03-07T22:26:15.446Z,24.73
2024-03-07T22:31:17.015Z,26.55
2024-03-07T22:36:19.683Z,30.40
2024-03-07T22:41:21.586Z,24.95
2024-03-07T22:46:23.928Z,30.90
2024-03-07T22:51:25.524Z,27.85
2024-03-07T22:56:30.038Z,27.02
2024-03-07T23:01:34.814Z,28.02
2024-03-07T23:06:36.375Z,25.60
2024-03-07T23:11:38.094Z,25.25
2024-03-07T23:16:39.695Z,25.50
2024-03-07T23:21:44.138Z,24.88
2024-03-07T23:26:52.988Z,30.67
2024-03-07T23:31:54.996Z,30.88
2024-03-07T23:36:57.349Z,29.02
2024-03-07T23:41:58.978Z,27.30
2024-03-07T23:47:00.826Z,24.95
2024-03-07T23:52:02.416Z,25.40
2024-03-07T23:57:05.592Z,32.92
